createdAt,value
2023-05-06T00:00:25.648Z,98716.31
2023-05-06T00:05:30.914Z,98723.31
2023-05-06T00:10:40.175Z,98718.81
2023-05-06T00:15:45.403Z,98712.28
2023-05-06T00:20:55.661Z,98714.53
2023-05-06T00:26:03.589Z,98709.38
2023-05-06T00:31:09.895Z,98706.53
2023-05-06T00:36:15.063Z,98693.56
2023-05-06T00:41:23.033Z,98686.00
2023-05-06T00:46:31.668Z,98688.75
2023-05-06T00:51:36.957Z,98693.19
2023-05-06T00:56:45.022Z,98687.19
2023-05-06T01:01:50.337Z,98683.91
2023-05-06T01:07:05.385Z,98676.84
2023-05-06T01:12:20.161Z,98666.03
2023-05-06T01:17:29.290Z,98670.84
2023-05-06T01:22:39.844Z,98669.91
2023-05-06T01:27:47.946Z,98656.75
2023-05-06T01:33:03.684Z,98652.34
2023-05-06T01:38:18.408Z,98652.59
2023-05-06T01:43:32.880Z,98663.63
2023-05-06T01:48:40.596Z,98666.44
2023-05-06T01:53:45.820Z,98667.03
2023-05-06T01:58:53.713Z,98660.44
2023-05-06T02:03:59.408Z,98671.50
2023-05-06T02:09:05.875Z,98661.78
2023-05-06T02:14:18.203Z,98659.28
2023-05-06T02:19:26.626Z,98652.81
2023-05-06T02:24:32.003Z,98646.06
2023-05-06T02:29:41.139Z,98636.66
2023-05-06T02:34:47.421Z,98626.59
2023-05-06T02:39:52.537Z,98620.94
2023-05-06T02:45:00.642Z,98625.84
2023-05-06T02:50:06.591Z,98622.19
2023-05-06T02:55:13.733Z,98614.00
2023-05-06T03:00:22.197Z,98605.19
2023-05-06T03:05:30.626Z,98601.03
2023-05-06T03:10:36.851Z,98588.59
2023-05-06T03:15:44.833Z,98592.97
2023-05-06T03:20:51.813Z,98592.44
2023-05-06T03:25:58.992Z,98594.25
2023-05-06T03:31:07.632Z,98604.47
2023-05-06T03:36:14.251Z,98605.84
2023-05-06T03:41:22.303Z,98601.91
2023-05-06T03:46:31.115Z,98602.28
2023-05-06T03:51:36.400Z,98593.66
2023-05-06T03:56:41.625Z,98596.13
2023-05-06T04:01:49.368Z,98598.16
2023-05-06T04:06:55.305Z,98606.81
2023-05-06T04:12:02.904Z,98610.88
2023-05-06T04:17:11.115Z,98610.22
2023-05-06T04:22:16.521Z,98607.25
2023-05-06T04:27:23.466Z,98606.75
2023-05-06T04:32:31.406Z,98612.91
2023-05-06T04:37:36.646Z,98615.84
2023-05-06T04:42:47.557Z,98626.03
2023-05-06T04:48:00.929Z,98621.84
2023-05-06T04:53:06.274Z,98628.47
2023-05-06T04:58:11.777Z,98622.84
2023-05-06T05:03:20.154Z,98629.66
2023-05-06T05:08:25.836Z,98631.34
2023-05-06T05:13:33.949Z,98638.47
2023-05-06T05:18:43.771Z,98639.03
2023-05-06T05:23:56.601Z,98634.06
2023-05-06T05:29:02.113Z,98641.38
2023-05-06T05:34:10.377Z,98638.63
2023-05-06T05:39:15.549Z,98640.81
2023-05-06T05:44:31.667Z,98647.25
2023-05-06T05:49:39.704Z,98648.75
2023-05-06T05:54:47.594Z,98647.44
2023-05-06T05:59:56.262Z,98652.59
2023-05-06T06:05:06.306Z,98646.91
2023-05-06T06:10:14.227Z,98652.81
2023-05-06T06:15:21.670Z,98652.63
2023-05-06T06:20:30.997Z,98661.53
2023-05-06T06:25:44.516Z,98668.34
2023-05-06T06:30:53.542Z,98665.75
2023-05-06T06:36:01.682Z,98679.56
2023-05-06T06:41:07.774Z,98681.59
2023-05-06T06:46:13.049Z,98681.34
2023-05-06T06:51:21.062Z,98690.09
2023-05-06T06:56:26.268Z,98688.84
2023-05-06T07:01:31.370Z,98695.13
2023-05-06T07:06:39.738Z,98686.69
2023-05-06T07:11:45.026Z,98687.59
2023-05-06T07:16:53.624Z,98688.47
2023-05-06T07:22:04.033Z,98707.97
2023-05-06T07:27:09.473Z,98708.47
2023-05-06T07:32:14.744Z,98711.34
2023-05-06T07:37:22.471Z,98706.16
2023-05-06T07:42:27.992Z,98709.38
2023-05-06T07:47:34.803Z,98714.56
2023-05-06T07:52:44.248Z,98714.34
2023-05-06T07:57:53.740Z,98731.09
2023-05-06T08:03:00.421Z,98736.03
2023-05-06T08:08:09.882Z,98727.66
2023-05-06T08:13:15.212Z,98739.09
2023-05-06T08:18:22.956Z,98742.88
2023-05-06T08:23:31.998Z,98743.69
2023-05-06T08:28:37.232Z,98748.47
2023-05-06T08:33:42.752Z,98755.53
2023-05-06T08:38:53.968Z,98761.69
2023-05-06T08:44:01.375Z,98777.94
2023-05-06T08:49:09.951Z,98783.38
2023-05-06T08:54:19.290Z,98788.66
2023-05-06T08:59:27.616Z,98803.94
2023-05-06T09:04:33.890Z,98792.50
2023-05-06T09:09:42.219Z,98797.25
2023-05-06T09:14:47.607Z,98807.69
2023-05-06T09:19:56.635Z,98808.84
2023-05-06T09:25:08.349Z,98805.78
2023-05-06T09:30:16.044Z,98811.63
2023-05-06T09:35:21.175Z,98813.97
2023-05-06T09:40:30.406Z,98819.25
2023-05-06T09:45:35.709Z,98820.72
2023-05-06T09:50:42.789Z,98822.09
2023-05-06T09:55:52.196Z,98820.38
2023-05-06T10:00:58.680Z,98823.41
2023-05-06T10:06:09.316Z,98829.84
2023-05-06T10:11:20.572Z,98823.81
2023-05-06T10:16:28.903Z,98833.06
2023-05-06T10:21:39.601Z,98829.19
2023-05-06T10:26:48.515Z,98839.94
2023-05-06T10:31:58.423Z,98835.47
2023-05-06T10:37:08.938Z,98837.03
2023-05-06T10:42:20.470Z,98837.94
2023-05-06T10:47:25.652Z,98833.81
2023-05-06T10:52:47.219Z,98842.63
2023-05-06T10:57:58.027Z,98843.13
2023-05-06T11:03:08.677Z,98844.31
2023-05-06T11:08:14.322Z,98842.66
2023-05-06T11:13:28.491Z,98837.69
2023-05-06T11:18:51.261Z,98855.06
2023-05-06T11:24:12.650Z,98860.47
2023-05-06T11:29:22.668Z,98867.94
2023-05-06T11:34:30.430Z,98871.53
2023-05-06T11:39:40.921Z,98875.63
2023-05-06T11:44:49.022Z,98886.78
2023-05-06T11:49:59.175Z,98884.16
2023-05-06T11:55:04.395Z,98883.44
2023-05-06T12:00:14.928Z,98895.16
2023-05-06T12:05:20.475Z,98907.16
2023-05-06T12:10:27.871Z,98905.66
2023-05-06T12:15:37.227Z,98906.13
2023-05-06T12:20:42.887Z,98902.34
2023-05-06T12:25:50.391Z,98897.25
2023-05-06T12:30:59.580Z,98904.53
2023-05-06T12:36:10.196Z,98912.38
2023-05-06T12:41:15.779Z,98918.47
2023-05-06T12:46:26.130Z,98914.97
2023-05-06T12:51:32.549Z,98908.50
2023-05-06T12:56:40.355Z,98915.13
2023-05-06T13:01:48.337Z,98905.59
2023-05-06T13:06:55.905Z,98919.63
2023-05-06T13:12:01.337Z,98924.50
2023-05-06T13:17:09.248Z,98928.41
2023-05-06T13:22:14.469Z,98916.50
2023-05-06T13:27:19.796Z,98920.66
2023-05-06T13:32:27.549Z,98933.44
2023-05-06T13:37:32.728Z,98933.84
2023-05-06T13:42:39.319Z,98934.91
2023-05-06T13:47:49.628Z,98941.47
2023-05-06T13:52:55.265Z,98927.06
2023-05-06T13:58:01.206Z,98934.75
2023-05-06T14:03:10.547Z,98933.22
2023-05-06T14:08:15.833Z,98934.53
2023-05-06T14:13:21.203Z,98933.69
2023-05-06T14:18:33.869Z,98930.69
2023-05-06T14:23:39.307Z,98924.66
2023-05-06T14:28:44.373Z,98928.31
2023-05-06T14:33:52.173Z,98935.09
2023-05-06T14:38:57.232Z,98934.66
2023-05-06T14:44:02.340Z,98934.13
2023-05-06T14:49:12.617Z,98933.13
2023-05-06T14:54:17.678Z,98937.47
2023-05-06T14:59:23.137Z,98939.03
2023-05-06T15:04:31.332Z,98951.59
2023-05-06T15:09:37.391Z,98957.34
2023-05-06T15:14:42.637Z,98948.19
2023-05-06T15:19:50.824Z,98949.94
2023-05-06T15:24:55.873Z,98963.31
2023-05-06T15:30:04.385Z,98961.03
2023-05-06T15:35:12.824Z,98957.16
2023-05-06T15:40:18.308Z,98972.72
2023-05-06T15:45:24.410Z,98967.25
2023-05-06T15:50:36.292Z,98973.31
2023-05-06T15:55:47.692Z,98960.03
2023-05-06T16:00:59.780Z,98971.09
2023-05-06T16:06:08.111Z,98967.19
2023-05-06T16:11:13.405Z,98959.31
2023-05-06T16:16:21.079Z,98977.13
2023-05-06T16:21:29.048Z,98978.44
2023-05-06T16:26:36.488Z,98970.13
2023-05-06T16:31:41.764Z,98981.59
2023-05-06T16:36:51.964Z,98981.75
2023-05-06T16:41:58.206Z,98979.88
2023-05-06T16:47:11.180Z,98963.91
2023-05-06T16:52:20.643Z,98970.84
2023-05-06T16:57:25.728Z,98975.31
2023-05-06T17:02:32.091Z,98973.88
2023-05-06T17:07:40.175Z,98978.59
2023-05-06T17:12:45.384Z,98990.25
2023-05-06T17:17:50.913Z,98978.94
2023-05-06T17:22:58.839Z,98979.09
2023-05-06T17:28:04.032Z,98980.78
2023-05-06T17:33:10.504Z,98985.84
2023-05-06T17:38:22.711Z,98998.88
2023-05-06T17:43:29.136Z,99001.56
2023-05-06T17:48:34.170Z,99006.75
2023-05-06T17:53:42.433Z,98998.41
2023-05-06T17:58:52.418Z,99006.56
2023-05-06T18:03:58.176Z,99019.03
2023-05-06T18:09:07.451Z,99015.88
2023-05-06T18:14:12.782Z,99020.38
2023-05-06T18:19:18.922Z,99027.28
2023-05-06T18:24:28.198Z,99040.81
2023-05-06T18:29:35.094Z,99040.84
2023-05-06T18:34:41.866Z,99040.25
2023-05-06T18:39:49.642Z,99051.56
2023-05-06T18:45:02.386Z,99053.88
2023-05-06T18:50:08.412Z,99059.22
2023-05-06T18:55:16.835Z,99065.72
2023-05-06T19:00:29.232Z,99073.13
2023-05-06T19:05:45.260Z,99076.03
2023-05-06T19:10:53.338Z,99069.72
2023-05-06T19:16:02.654Z,99069.63
2023-05-06T19:21:11.028Z,99065.03
2023-05-06T19:26:21.835Z,99064.13
2023-05-06T19:31:27.386Z,99063.91
2023-05-06T19:36:32.794Z,99082.84
2023-05-06T19:41:41.949Z,99085.38
2023-05-06T19:46:47.275Z,99085.31
2023-05-06T19:51:52.418Z,99086.31
2023-05-06T19:57:03.258Z,99087.41
2023-05-06T20:02:16.706Z,99092.81
2023-05-06T20:07:25.398Z,99089.66
2023-05-06T20:12:33.434Z,99089.38
2023-05-06T20:17:39.592Z,99084.03
2023-05-06T20:22:44.767Z,99082.16
2023-05-06T20:27:53.687Z,99083.84
2023-05-06T20:33:00.517Z,99077.31
2023-05-06T20:38:06.726Z,99074.47
2023-05-06T20:43:35.434Z,99081.19
2023-05-06T20:48:41.954Z,99078.44
2023-05-06T20:53:47.909Z,99088.28
2023-05-06T20:58:57.682Z,99087.00
2023-05-06T21:04:05.193Z,99092.78
2023-05-06T21:09:10.698Z,99105.28
2023-05-06T21:14:19.671Z,99107.34
2023-05-06T21:19:27.188Z,99113.13
2023-05-06T21:24:33.360Z,99109.75
2023-05-06T21:29:42.603Z,99111.31
2023-05-06T21:34:47.834Z,99113.78
2023-05-06T21:39:54.393Z,99122.94
2023-05-06T21:45:04.866Z,99117.66
2023-05-06T21:50:11.655Z,99118.97
2023-05-06T21:55:17.236Z,99122.81
2023-05-06T22:00:30.006Z,99122.03
2023-05-06T22:05:35.537Z,99138.03
2023-05-06T22:10:44.208Z,99127.56
2023-05-06T22:15:54.084Z,99121.00
2023-05-06T22:20:59.980Z,99131.50
2023-05-06T22:26:08.712Z,99129.19
2023-05-06T22:31:19.453Z,99143.94
2023-05-06T22:36:33.289Z,99129.84
2023-05-06T22:41:40.392Z,99130.28
2023-05-06T22:46:49.578Z,99139.00
2023-05-06T22:51:57.712Z,99131.28
2023-05-06T22:57:03.157Z,99137.16
2023-05-06T23:02:12.013Z,99140.34
2023-05-06T23:07:18.353Z,99141.91
2023-05-06T23:12:25.092Z,99140.94
2023-05-06T23:17:33.538Z,99127.19
2023-05-06T23:22:38.637Z,99137.47
2023-05-06T23:27:45.888Z,99135.59
2023-05-06T23:32:53.690Z,99139.44
2023-05-06T23:37:58.742Z,99142.16
2023-05-06T23:43:07.362Z,99141.06
2023-05-06T23:48:15.079Z,99144.94
2023-05-06T23:53:20.553Z,99152.44
2023-05-06T23:58:25.803Z,99154.59
